Rutland, Pennsylvania
Current Conditions -  °F | °C
As of 10:35 AM on Saturday 22 Nov 2014 (Local Time) from KN38 Reporting Station
Broken Clouds Broken Clouds  
Wind Chill: 17°   Ceiling: 4700
Heat Index: 28°   Visibility: 10mi
Dew Point:   Wind: 15mph
Humidity: 43%   Direction: 210°SSW
Pressure: 30.26"   Gusts: 21mph
Location:  41.8345°N, 77.0538°W
Report Text: KN38 221535Z AUTO 21013G18KT 10SM BKN047 M02/M13 A3026 RMK AO2
Loading
Personal Weather Stations






























Interactive Weather Map New forecast layout! Learn more

10-Day Weather Forecast

Advertisements
Track Severe Weather on mobile